sensor_id;sensor_type;location;lat;lon;timestamp;pressure;altitude;pressure_sealevel;temperature;humidity
44140;BME280;29803;51.048;4.686;2022-12-15T00:02:38;100668.75;;;-8.84;100.00
44140;BME280;29803;51.048;4.686;2022-12-15T00:05:27;100678.31;;;-8.85;100.00
44140;BME280;29803;51.048;4.686;2022-12-15T00:08:16;100673.06;;;-8.83;100.00
44140;BME280;29803;51.048;4.686;2022-12-15T00:11:05;100673.03;;;-8.82;100.00
44140;BME280;29803;51.048;4.686;2022-12-15T00:13:54;100680.75;;;-8.80;100.00
44140;BME280;29803;51.048;4.686;2022-12-15T00:16:43;100685.19;;;-8.84;100.00
44140;BME280;29803;51.048;4.686;2022-12-15T00:19:32;100682.66;;;-8.85;100.00
44140;BME280;29803;51.048;4.686;2022-12-15T00:22:21;100695.66;;;-8.85;100.00
44140;BME280;29803;51.048;4.686;2022-12-15T00:25:10;100687.00;;;-8.86;100.00
44140;BME280;29803;51.048;4.686;2022-12-15T00:27:59;100693.91;;;-8.85;100.00
44140;BME280;29803;51.048;4.686;2022-12-15T00:30:48;100692.91;;;-8.81;100.00
44140;BME280;29803;51.048;4.686;2022-12-15T00:33:36;100689.41;;;-8.80;100.00
44140;BME280;29803;51.048;4.686;2022-12-15T00:36:25;100693.91;;;-8.85;100.00
44140;BME280;29803;51.048;4.686;2022-12-15T00:39:14;100700.09;;;-8.89;100.00
44140;BME280;29803;51.048;4.686;2022-12-15T00:41:44;100699.34;;;-8.93;100.00
44140;BME280;29803;51.048;4.686;2022-12-15T00:44:15;100708.19;;;-8.98;100.00
44140;BME280;29803;51.048;4.686;2022-12-15T00:46:45;100713.47;;;-9.01;100.00
44140;BME280;29803;51.048;4.686;2022-12-15T00:49:27;100713.91;;;-8.87;100.00
44140;BME280;29803;51.048;4.686;2022-12-15T00:52:17;100713.81;;;-8.84;100.00
44140;BME280;29803;51.048;4.686;2022-12-15T00:55:06;100718.22;;;-8.86;100.00
44140;BME280;29803;51.048;4.686;2022-12-15T00:57:55;100719.91;;;-8.85;100.00
44140;BME280;29803;51.048;4.686;2022-12-15T01:00:44;100719.97;;;-8.87;100.00
44140;BME280;29803;51.048;4.686;2022-12-15T01:03:33;100721.84;;;-8.92;100.00
44140;BME280;29803;51.048;4.686;2022-12-15T01:06:22;100712.53;;;-8.99;100.00
44140;BME280;29803;51.048;4.686;2022-12-15T01:09:12;100701.53;;;-9.07;100.00
44140;BME280;29803;51.048;4.686;2022-12-15T01:12:01;100699.00;;;-9.10;100.00
44140;BME280;29803;51.048;4.686;2022-12-15T01:14:50;100693.72;;;-9.07;100.00
44140;BME280;29803;51.048;4.686;2022-12-15T01:17:39;100702.75;;;-8.91;100.00
44140;BME280;29803;51.048;4.686;2022-12-15T01:20:28;100707.03;;;-8.90;100.00
44140;BME280;29803;51.048;4.686;2022-12-15T01:23:03;100709.69;;;-8.91;100.00
44140;BME280;29803;51.048;4.686;2022-12-15T01:25:37;100713.34;;;-8.97;100.00
44140;BME280;29803;51.048;4.686;2022-12-15T01:28:07;100713.41;;;-9.00;100.00
44140;BME280;29803;51.048;4.686;2022-12-15T01:30:38;100710.34;;;-9.13;100.00
44140;BME280;29803;51.048;4.686;2022-12-15T01:33:08;100703.81;;;-9.26;100.00
44140;BME280;29803;51.048;4.686;2022-12-15T01:35:39;100694.44;;;-9.31;100.00
44140;BME280;29803;51.048;4.686;2022-12-15T01:38:09;100705.75;;;-9.34;100.00
44140;BME280;29803;51.048;4.686;2022-12-15T01:40:50;100706.53;;;-9.30;100.00
44140;BME280;29803;51.048;4.686;2022-12-15T01:43:23;100721.94;;;-9.24;100.00
44140;BME280;29803;51.048;4.686;2022-12-15T01:48:45;100718.94;;;-9.10;100.00
44140;BME280;29803;51.048;4.686;2022-12-15T01:51:19;100728.44;;;-9.09;100.00
44140;BME280;29803;51.048;4.686;2022-12-15T01:54:08;100726.03;;;-9.16;100.00
44140;BME280;29803;51.048;4.686;2022-12-15T01:56:43;100733.03;;;-9.19;100.00
44140;BME280;29803;51.048;4.686;2022-12-15T01:59:21;100739.16;;;-9.20;100.00
44140;BME280;29803;51.048;4.686;2022-12-15T02:01:53;100734.91;;;-9.23;100.00
44140;BME280;29803;51.048;4.686;2022-12-15T02:04:24;100746.34;;;-9.30;100.00
44140;BME280;29803;51.048;4.686;2022-12-15T02:06:54;100733.72;;;-9.42;100.00
44140;BME280;29803;51.048;4.686;2022-12-15T02:09:25;100746.06;;;-9.50;100.00
44140;BME280;29803;51.048;4.686;2022-12-15T02:12:08;100746.97;;;-9.51;100.00
44140;BME280;29803;51.048;4.686;2022-12-15T02:20:35;100753.13;;;-9.55;100.00
44140;BME280;29803;51.048;4.686;2022-12-15T02:31:36;100752.16;;;-9.51;100.00
44140;BME280;29803;51.048;4.686;2022-12-15T02:37:07;100754.31;;;-9.36;100.00
44140;BME280;29803;51.048;4.686;2022-12-15T02:39:40;100755.94;;;-9.32;100.00
44140;BME280;29803;51.048;4.686;2022-12-15T02:42:11;100744.59;;;-9.29;100.00
44140;BME280;29803;51.048;4.686;2022-12-15T02:44:58;100736.66;;;-9.23;100.00
44140;BME280;29803;51.048;4.686;2022-12-15T02:47:44;100742.53;;;-9.17;100.00
44140;BME280;29803;51.048;4.686;2022-12-15T02:50:47;100752.84;;;-9.15;100.00
44140;BME280;29803;51.048;4.686;2022-12-15T02:58:45;100770.75;;;-9.35;100.00
44140;BME280;29803;51.048;4.686;2022-12-15T03:03:55;100769.97;;;-9.39;100.00
44140;BME280;29803;51.048;4.686;2022-12-15T03:06:27;100766.53;;;-9.40;100.00
44140;BME280;29803;51.048;4.686;2022-12-15T03:08:58;100769.13;;;-9.38;100.00
44140;BME280;29803;51.048;4.686;2022-12-15T03:11:34;100763.81;;;-9.35;100.00
44140;BME280;29803;51.048;4.686;2022-12-15T03:14:06;100758.59;;;-9.33;100.00
44140;BME280;29803;51.048;4.686;2022-12-15T03:16:36;100772.44;;;-9.33;100.00
44140;BME280;29803;51.048;4.686;2022-12-15T03:19:07;100778.50;;;-9.34;100.00
44140;BME280;29803;51.048;4.686;2022-12-15T03:21:38;100771.59;;;-9.35;100.00
44140;BME280;29803;51.048;4.686;2022-12-15T03:24:08;100775.09;;;-9.36;100.00
44140;BME280;29803;51.048;4.686;2022-12-15T03:26:44;100773.41;;;-9.37;100.00
44140;BME280;29803;51.048;4.686;2022-12-15T03:29:19;100777.78;;;-9.39;100.00
44140;BME280;29803;51.048;4.686;2022-12-15T03:31:49;100776.06;;;-9.40;100.00
44140;BME280;29803;51.048;4.686;2022-12-15T03:34:20;100776.13;;;-9.42;100.00
44140;BME280;29803;51.048;4.686;2022-12-15T03:36:50;100774.50;;;-9.46;100.00
44140;BME280;29803;51.048;4.686;2022-12-15T03:39:21;100775.47;;;-9.48;100.00
44140;BME280;29803;51.048;4.686;2022-12-15T03:41:51;100777.09;;;-9.46;100.00
44140;BME280;29803;51.048;4.686;2022-12-15T03:44:21;100774.56;;;-9.47;100.00
44140;BME280;29803;51.048;4.686;2022-12-15T03:46:52;100784.91;;;-9.46;100.00
44140;BME280;29803;51.048;4.686;2022-12-15T03:49:22;100779.78;;;-9.49;100.00
44140;BME280;29803;51.048;4.686;2022-12-15T03:51:53;100772.94;;;-9.51;100.00
44140;BME280;29803;51.048;4.686;2022-12-15T03:54:23;100775.41;;;-9.47;100.00
44140;BME280;29803;51.048;4.686;2022-12-15T03:56:54;100783.13;;;-9.44;100.00
44140;BME280;29803;51.048;4.686;2022-12-15T03:59:24;100780.56;;;-9.45;100.00
44140;BME280;29803;51.048;4.686;2022-12-15T04:01:54;100779.69;;;-9.46;100.00
44140;BME280;29803;51.048;4.686;2022-12-15T04:04:25;100784.91;;;-9.46;100.00
44140;BME280;29803;51.048;4.686;2022-12-15T04:06:55;100787.53;;;-9.47;100.00
44140;BME280;29803;51.048;4.686;2022-12-15T04:09:26;100789.31;;;-9.49;100.00
44140;BME280;29803;51.048;4.686;2022-12-15T04:11:56;100785.91;;;-9.51;100.00
44140;BME280;29803;51.048;4.686;2022-12-15T04:14:26;100781.63;;;-9.54;100.00
44140;BME280;29803;51.048;4.686;2022-12-15T04:16:57;100782.47;;;-9.52;100.00
44140;BME280;29803;51.048;4.686;2022-12-15T04:19:28;100788.47;;;-9.50;100.00
44140;BME280;29803;51.048;4.686;2022-12-15T04:22:17;100794.50;;;-9.49;100.00
44140;BME280;29803;51.048;4.686;2022-12-15T04:24:47;100798.00;;;-9.50;100.00
44140;BME280;29803;51.048;4.686;2022-12-15T04:27:37;100800.72;;;-9.55;100.00
44140;BME280;29803;51.048;4.686;2022-12-15T04:30:25;100805.00;;;-9.52;100.00
44140;BME280;29803;51.048;4.686;2022-12-15T04:33:15;100802.34;;;-9.51;100.00
44140;BME280;29803;51.048;4.686;2022-12-15T04:36:06;100795.50;;;-9.53;100.00
44140;BME280;29803;51.048;4.686;2022-12-15T04:38:56;100788.63;;;-9.56;100.00
44140;BME280;29803;51.048;4.686;2022-12-15T04:41:45;100799.06;;;-9.57;100.00
44140;BME280;29803;51.048;4.686;2022-12-15T04:44:34;100794.78;;;-9.58;100.00
44140;BME280;29803;51.048;4.686;2022-12-15T04:47:23;100796.47;;;-9.57;100.00
44140;BME280;29803;51.048;4.686;2022-12-15T04:50:12;100805.06;;;-9.55;100.00
44140;BME280;29803;51.048;4.686;2022-12-15T04:53:08;100805.06;;;-9.55;100.00
44140;BME280;29803;51.048;4.686;2022-12-15T04:55:58;100810.09;;;-9.49;100.00
44140;BME280;29803;51.048;4.686;2022-12-15T04:58:47;100803.94;;;-9.45;100.00
44140;BME280;29803;51.048;4.686;2022-12-15T05:01:36;100804.78;;;-9.45;100.00
44140;BME280;29803;51.048;4.686;2022-12-15T05:04:25;100809.25;;;-9.50;100.00
44140;BME280;29803;51.048;4.686;2022-12-15T05:07:14;100811.97;;;-9.54;100.00
44140;BME280;29803;51.048;4.686;2022-12-15T05:10:04;100816.41;;;-9.59;100.00
44140;BME280;29803;51.048;4.686;2022-12-15T05:12:53;100820.00;;;-9.63;100.00
44140;BME280;29803;51.048;4.686;2022-12-15T05:15:42;100825.22;;;-9.65;100.00
44140;BME280;29803;51.048;4.686;2022-12-15T05:18:31;100822.59;;;-9.63;100.00
44140;BME280;29803;51.048;4.686;2022-12-15T05:21:19;100815.75;;;-9.66;100.00
44140;BME280;29803;51.048;4.686;2022-12-15T05:24:08;100835.88;;;-9.76;100.00
44140;BME280;29803;51.048;4.686;2022-12-15T05:26:57;100835.38;;;-9.90;100.00
44140;BME280;29803;51.048;4.686;2022-12-15T05:29:45;100835.47;;;-9.95;100.00
44140;BME280;29803;51.048;4.686;2022-12-15T05:32:34;100826.03;;;-9.97;100.00
44140;BME280;29803;51.048;4.686;2022-12-15T05:35:05;100827.78;;;-9.98;100.00
44140;BME280;29803;51.048;4.686;2022-12-15T05:37:35;100830.34;;;-9.96;100.00
44140;BME280;29803;51.048;4.686;2022-12-15T05:40:06;100823.28;;;-9.91;100.00
44140;BME280;29803;51.048;4.686;2022-12-15T05:42:37;100834.47;;;-9.89;100.00
44140;BME280;29803;51.048;4.686;2022-12-15T05:45:08;100832.81;;;-9.92;100.00
44140;BME280;29803;51.048;4.686;2022-12-15T05:47:39;100842.50;;;-9.98;100.00
44140;BME280;29803;51.048;4.686;2022-12-15T05:50:10;100839.94;;;-10.00;100.00
44140;BME280;29803;51.048;4.686;2022-12-15T05:52:40;100841.72;;;-10.02;100.00
44140;BME280;29803;51.048;4.686;2022-12-15T05:55:10;100833.88;;;-10.00;100.00
44140;BME280;29803;51.048;4.686;2022-12-15T05:57:41;100832.13;;;-9.98;100.00
44140;BME280;29803;51.048;4.686;2022-12-15T06:00:12;100834.72;;;-9.98;100.00
44140;BME280;29803;51.048;4.686;2022-12-15T06:02:42;100825.09;;;-9.95;100.00
44140;BME280;29803;51.048;4.686;2022-12-15T06:05:13;100830.19;;;-9.90;100.00
44140;BME280;29803;51.048;4.686;2022-12-15T06:07:43;100832.75;;;-9.88;100.00
44140;BME280;29803;51.048;4.686;2022-12-15T06:10:14;100829.22;;;-9.86;100.00
44140;BME280;29803;51.048;4.686;2022-12-15T06:12:44;100833.44;;;-9.82;100.00
44140;BME280;29803;51.048;4.686;2022-12-15T06:15:15;100837.75;;;-9.81;100.00
44140;BME280;29803;51.048;4.686;2022-12-15T06:17:45;100841.19;;;-9.79;100.00
44140;BME280;29803;51.048;4.686;2022-12-15T06:20:16;100848.97;;;-9.79;100.00
44140;BME280;29803;51.048;4.686;2022-12-15T06:22:46;100848.97;;;-9.79;100.00
44140;BME280;29803;51.048;4.686;2022-12-15T06:25:17;100847.16;;;-9.77;100.00
44140;BME280;29803;51.048;4.686;2022-12-15T06:27:47;100848.88;;;-9.76;100.00
44140;BME280;29803;51.048;4.686;2022-12-15T06:30:17;100851.47;;;-9.76;100.00
44140;BME280;29803;51.048;4.686;2022-12-15T06:32:48;100856.72;;;-9.77;100.00
44140;BME280;29803;51.048;4.686;2022-12-15T06:35:18;100854.22;;;-9.82;100.00
44140;BME280;29803;51.048;4.686;2022-12-15T06:37:50;100850.78;;;-9.84;100.00
44140;BME280;29803;51.048;4.686;2022-12-15T06:40:20;100843.91;;;-9.85;100.00
44140;BME280;29803;51.048;4.686;2022-12-15T06:42:51;100848.13;;;-9.81;100.00
44140;BME280;29803;51.048;4.686;2022-12-15T06:45:21;100845.47;;;-9.78;100.00
44140;BME280;29803;51.048;4.686;2022-12-15T06:47:52;100835.88;;;-9.76;100.00
44140;BME280;29803;51.048;4.686;2022-12-15T06:50:22;100833.28;;;-9.76;100.00
44140;BME280;29803;51.048;4.686;2022-12-15T06:52:52;100837.69;;;-9.78;100.00
44140;BME280;29803;51.048;4.686;2022-12-15T06:55:23;100833.41;;;-9.80;100.00
44140;BME280;29803;51.048;4.686;2022-12-15T06:57:54;100839.50;;;-9.81;100.00
44140;BME280;29803;51.048;4.686;2022-12-15T07:00:26;100843.84;;;-9.82;100.00
44140;BME280;29803;51.048;4.686;2022-12-15T07:02:57;100849.88;;;-9.81;100.00
44140;BME280;29803;51.048;4.686;2022-12-15T07:05:27;100842.97;;;-9.82;100.00
44140;BME280;29803;51.048;4.686;2022-12-15T07:07:58;100840.34;;;-9.81;100.00
44140;BME280;29803;51.048;4.686;2022-12-15T07:10:28;100842.97;;;-9.82;100.00
44140;BME280;29803;51.048;4.686;2022-12-15T07:12:59;100843.88;;;-9.83;100.00
44140;BME280;29803;51.048;4.686;2022-12-15T07:15:30;100844.75;;;-9.84;100.00
44140;BME280;29803;51.048;4.686;2022-12-15T07:18:00;100849.06;;;-9.83;100.00
44140;BME280;29803;51.048;4.686;2022-12-15T07:20:31;100849.03;;;-9.82;100.00
44140;BME280;29803;51.048;4.686;2022-12-15T07:23:02;100854.22;;;-9.82;100.00
44140;BME280;29803;51.048;4.686;2022-12-15T07:25:38;100862.91;;;-9.83;100.00
44140;BME280;29803;51.048;4.686;2022-12-15T07:28:09;100859.47;;;-9.85;100.00
44140;BME280;29803;51.048;4.686;2022-12-15T07:30:40;100863.75;;;-9.82;100.00
44140;BME280;29803;51.048;4.686;2022-12-15T07:33:11;100863.75;;;-9.82;100.00
44140;BME280;29803;51.048;4.686;2022-12-15T07:35:41;100858.50;;;-9.81;100.00
44140;BME280;29803;51.048;4.686;2022-12-15T07:38:11;100861.91;;;-9.77;100.00
44140;BME280;29803;51.048;4.686;2022-12-15T07:40:42;100859.13;;;-9.71;100.00
44140;BME280;29803;51.048;4.686;2022-12-15T07:43:12;100859.84;;;-9.65;100.00
44140;BME280;29803;51.048;4.686;2022-12-15T07:45:43;100860.63;;;-9.61;100.00
44140;BME280;29803;51.048;4.686;2022-12-15T07:48:13;100862.25;;;-9.57;100.00
44140;BME280;29803;51.048;4.686;2022-12-15T07:50:44;100863.88;;;-9.53;100.00
44140;BME280;29803;51.048;4.686;2022-12-15T07:53:14;100872.31;;;-9.43;100.00
44140;BME280;29803;51.048;4.686;2022-12-15T07:55:52;100871.28;;;-9.37;100.00
44140;BME280;29803;51.048;4.686;2022-12-15T07:58:24;100869.59;;;-9.38;100.00
44140;BME280;29803;51.048;4.686;2022-12-15T08:01:03;100875.66;;;-9.40;100.00
44140;BME280;29803;51.048;4.686;2022-12-15T08:03:34;100873.06;;;-9.40;100.00
44140;BME280;29803;51.048;4.686;2022-12-15T08:06:09;100870.44;;;-9.38;100.00
44140;BME280;29803;51.048;4.686;2022-12-15T08:08:40;100876.47;;;-9.37;100.00
44140;BME280;29803;51.048;4.686;2022-12-15T08:11:13;100872.97;;;-9.36;100.00
44140;BME280;29803;51.048;4.686;2022-12-15T08:13:44;100877.22;;;-9.34;100.00
44140;BME280;29803;51.048;4.686;2022-12-15T08:16:15;100884.84;;;-9.26;100.00
44140;BME280;29803;51.048;4.686;2022-12-15T08:18:45;100883.75;;;-9.18;100.00
44140;BME280;29803;51.048;4.686;2022-12-15T08:21:16;100893.81;;;-9.05;100.00
44140;BME280;29803;51.048;4.686;2022-12-15T08:23:46;100891.69;;;-8.91;100.00
44140;BME280;29803;51.048;4.686;2022-12-15T08:26:17;100892.84;;;-8.70;100.00
44140;BME280;29803;51.048;4.686;2022-12-15T08:28:48;100893.41;;;-8.31;100.00
44140;BME280;29803;51.048;4.686;2022-12-15T08:31:21;100902.47;;;-7.88;100.00
44140;BME280;29803;51.048;4.686;2022-12-15T08:33:51;100900.59;;;-7.30;100.00
44140;BME280;29803;51.048;4.686;2022-12-15T08:36:22;100905.94;;;-6.60;100.00
44140;BME280;29803;51.048;4.686;2022-12-15T08:38:55;100911.44;;;-5.97;100.00
44140;BME280;29803;51.048;4.686;2022-12-15T08:41:31;100920.56;;;-5.65;100.00
44140;BME280;29803;51.048;4.686;2022-12-15T08:44:01;100921.22;;;-5.17;100.00
44140;BME280;29803;51.048;4.686;2022-12-15T08:46:33;100927.56;;;-5.03;100.00
44140;BME280;29803;51.048;4.686;2022-12-15T08:49:03;100930.66;;;-4.93;100.00
44140;BME280;29803;51.048;4.686;2022-12-15T08:51:34;100929.28;;;-5.02;100.00
44140;BME280;29803;51.048;4.686;2022-12-15T08:54:04;100944.19;;;-5.04;100.00
44140;BME280;29803;51.048;4.686;2022-12-15T08:56:35;100951.63;;;-5.15;100.00
44140;BME280;29803;51.048;4.686;2022-12-15T08:59:05;100945.41;;;-5.12;100.00
44140;BME280;29803;51.048;4.686;2022-12-15T09:01:36;100953.16;;;-4.89;100.00
44140;BME280;29803;51.048;4.686;2022-12-15T09:04:09;100951.91;;;-4.60;100.00
44140;BME280;29803;51.048;4.686;2022-12-15T09:06:40;100949.91;;;-4.15;100.00
44140;BME280;29803;51.048;4.686;2022-12-15T09:09:11;100953.44;;;-3.79;100.00
44140;BME280;29803;51.048;4.686;2022-12-15T09:11:43;100953.22;;;-3.38;100.00
44140;BME280;29803;51.048;4.686;2022-12-15T09:14:14;100946.53;;;-2.92;100.00
44140;BME280;29803;51.048;4.686;2022-12-15T09:16:45;100948.09;;;-2.70;100.00
44140;BME280;29803;51.048;4.686;2022-12-15T09:19:15;100960.25;;;-2.52;100.00
44140;BME280;29803;51.048;4.686;2022-12-15T09:21:46;100959.34;;;-1.86;100.00
44140;BME280;29803;51.048;4.686;2022-12-15T09:24:17;100949.16;;;-1.92;100.00
44140;BME280;29803;51.048;4.686;2022-12-15T09:26:47;100957.63;;;-2.19;100.00
44140;BME280;29803;51.048;4.686;2022-12-15T09:29:18;100957.16;;;-1.94;100.00
44140;BME280;29803;51.048;4.686;2022-12-15T09:31:48;100968.38;;;-1.59;100.00
44140;BME280;29803;51.048;4.686;2022-12-15T09:34:19;100973.00;;;-1.32;100.00
44140;BME280;29803;51.048;4.686;2022-12-15T09:36:49;100979.31;;;-1.35;100.00
44140;BME280;29803;51.048;4.686;2022-12-15T09:39:20;100975.94;;;-1.22;100.00
44140;BME280;29803;51.048;4.686;2022-12-15T09:41:53;100989.66;;;-1.01;100.00
44140;BME280;29803;51.048;4.686;2022-12-15T09:44:27;100994.03;;;-0.86;100.00
44140;BME280;29803;51.048;4.686;2022-12-15T09:47:16;100993.66;;;-0.64;100.00
44140;BME280;29803;51.048;4.686;2022-12-15T09:52:28;100989.19;;;-0.19;100.00
44140;BME280;29803;51.048;4.686;2022-12-15T09:54:59;100993.47;;;-0.47;100.00
44140;BME280;29803;51.048;4.686;2022-12-15T09:57:39;100989.34;;;-1.11;100.00
44140;BME280;29803;51.048;4.686;2022-12-15T10:01:15;100981.25;;;-1.54;100.00
44140;BME280;29803;51.048;4.686;2022-12-15T10:03:57;100982.78;;;-1.66;100.00
44140;BME280;29803;51.048;4.686;2022-12-15T10:06:37;100982.53;;;-1.61;100.00
44140;BME280;29803;51.048;4.686;2022-12-15T10:09:25;100988.03;;;-1.82;100.00
44140;BME280;29803;51.048;4.686;2022-12-15T10:12:01;100987.16;;;-1.98;100.00
44140;BME280;29803;51.048;4.686;2022-12-15T10:14:40;100978.53;;;-2.00;100.00
44140;BME280;29803;51.048;4.686;2022-12-15T10:17:40;100976.00;;;-1.70;100.00
44140;BME280;29803;51.048;4.686;2022-12-15T10:20:20;100972.09;;;-1.63;100.00
44140;BME280;29803;51.048;4.686;2022-12-15T10:22:52;100976.00;;;-1.54;100.00
44140;BME280;29803;51.048;4.686;2022-12-15T10:25:25;100974.47;;;-1.58;100.00
44140;BME280;29803;51.048;4.686;2022-12-15T10:30:59;100983.81;;;-1.68;100.00
44140;BME280;29803;51.048;4.686;2022-12-15T10:33:37;100988.31;;;-1.54;100.00
44140;BME280;29803;51.048;4.686;2022-12-15T10:36:10;100984.56;;;-1.35;100.00
44140;BME280;29803;51.048;4.686;2022-12-15T10:38:45;100995.75;;;-1.15;100.00
44140;BME280;29803;51.048;4.686;2022-12-15T10:41:22;100989.91;;;-1.20;100.00
44140;BME280;29803;51.048;4.686;2022-12-15T10:43:54;100989.50;;;-0.98;100.00
44140;BME280;29803;51.048;4.686;2022-12-15T10:46:28;100985.50;;;-0.90;100.00
44140;BME280;29803;51.048;4.686;2022-12-15T10:49:22;100979.84;;;-0.84;100.00
44140;BME280;29803;51.048;4.686;2022-12-15T10:51:56;100985.56;;;-0.91;100.00
44140;BME280;29803;51.048;4.686;2022-12-15T10:54:42;100991.19;;;-0.97;100.00
44140;BME280;29803;51.048;4.686;2022-12-15T10:57:18;100997.97;;;-0.93;100.00
44140;BME280;29803;51.048;4.686;2022-12-15T10:59:49;100996.50;;;-0.83;100.00
44140;BME280;29803;51.048;4.686;2022-12-15T11:05:15;100990.06;;;-0.63;100.00
44140;BME280;29803;51.048;4.686;2022-12-15T11:07:55;100991.66;;;-0.61;100.00
44140;BME280;29803;51.048;4.686;2022-12-15T11:10:53;100984.53;;;-0.59;100.00
44140;BME280;29803;51.048;4.686;2022-12-15T11:14:03;100985.19;;;-0.55;100.00
44140;BME280;29803;51.048;4.686;2022-12-15T11:16:44;100985.53;;;-0.61;100.00
44140;BME280;29803;51.048;4.686;2022-12-15T11:19:25;100983.75;;;-0.61;100.00
44140;BME280;29803;51.048;4.686;2022-12-15T11:22:07;100981.41;;;-0.51;100.00
44140;BME280;29803;51.048;4.686;2022-12-15T11:24:52;100980.69;;;-0.39;100.00
44140;BME280;29803;51.048;4.686;2022-12-15T11:27:35;100980.78;;;-0.40;100.00
44140;BME280;29803;51.048;4.686;2022-12-15T11:30:12;100987.09;;;-0.43;100.00
44140;BME280;29803;51.048;4.686;2022-12-15T11:32:44;100982.22;;;-0.35;100.00
44140;BME280;29803;51.048;4.686;2022-12-15T11:35:24;100980.50;;;-0.36;100.00
44140;BME280;29803;51.048;4.686;2022-12-15T11:38:15;100977.97;;;-0.23;100.00
44140;BME280;29803;51.048;4.686;2022-12-15T11:40:49;100978.25;;;-0.13;100.00
44140;BME280;29803;51.048;4.686;2022-12-15T11:54:55;100949.66;;;0.36;100.00
44140;BME280;29803;51.048;4.686;2022-12-15T11:57:54;100949.28;;;0.28;100.00
44140;BME280;29803;51.048;4.686;2022-12-15T12:00:30;100948.03;;;0.34;100.00
44140;BME280;29803;51.048;4.686;2022-12-15T12:03:19;100941.19;;;0.31;100.00
44140;BME280;29803;51.048;4.686;2022-12-15T12:11:31;100942.81;;;0.46;100.00
44140;BME280;29803;51.048;4.686;2022-12-15T12:14:36;100937.72;;;0.43;100.00
44140;BME280;29803;51.048;4.686;2022-12-15T12:17:42;100940.44;;;0.56;100.00
44140;BME280;29803;51.048;4.686;2022-12-15T12:20:42;100939.97;;;0.49;100.00
44140;BME280;29803;51.048;4.686;2022-12-15T12:23:20;100944.00;;;0.55;100.00
44140;BME280;29803;51.048;4.686;2022-12-15T12:26:32;100934.94;;;0.59;100.00
44140;BME280;29803;51.048;4.686;2022-12-15T12:29:02;100936.25;;;0.66;100.00
44140;BME280;29803;51.048;4.686;2022-12-15T12:31:47;100933.09;;;0.74;100.00
44140;BME280;29803;51.048;4.686;2022-12-15T12:34:31;100935.25;;;0.82;100.00
44140;BME280;29803;51.048;4.686;2022-12-15T12:37:20;100925.28;;;0.85;100.00
44140;BME280;29803;51.048;4.686;2022-12-15T12:39:59;100925.09;;;0.88;100.00
44140;BME280;29803;51.048;4.686;2022-12-15T12:42:42;100921.97;;;0.96;100.00
44140;BME280;29803;51.048;4.686;2022-12-15T12:45:16;100917.94;;;1.03;100.00
44140;BME280;29803;51.048;4.686;2022-12-15T12:47:50;100914.03;;;1.09;100.00
44140;BME280;29803;51.048;4.686;2022-12-15T12:50:24;100915.84;;;1.08;100.00
44140;BME280;29803;51.048;4.686;2022-12-15T12:52:59;100906.88;;;1.11;100.00
44140;BME280;29803;51.048;4.686;2022-12-15T12:55:39;100903.69;;;1.18;100.00
44140;BME280;29803;51.048;4.686;2022-12-15T12:58:30;100895.97;;;1.15;100.00
44140;BME280;29803;51.048;4.686;2022-12-15T13:01:17;100882.75;;;1.15;100.00
44140;BME280;29803;51.048;4.686;2022-12-15T13:04:04;100885.94;;;1.20;100.00
44140;BME280;29803;51.048;4.686;2022-12-15T13:17:38;100872.94;;;1.17;100.00
44140;BME280;29803;51.048;4.686;2022-12-15T13:20:24;100878.22;;;1.17;100.00
44140;BME280;29803;51.048;4.686;2022-12-15T13:44:43;100851.69;;;0.81;100.00
44140;BME280;29803;51.048;4.686;2022-12-15T13:47:19;100847.97;;;0.83;100.00
44140;BME280;29803;51.048;4.686;2022-12-15T13:55:40;100848.00;;;0.96;100.00
44140;BME280;29803;51.048;4.686;2022-12-15T13:58:16;100841.53;;;1.00;100.00
44140;BME280;29803;51.048;4.686;2022-12-15T14:00:53;100837.97;;;1.01;100.00
44140;BME280;29803;51.048;4.686;2022-12-15T14:03:24;100835.72;;;0.95;100.00
44140;BME280;29803;51.048;4.686;2022-12-15T14:05:58;100833.38;;;0.90;100.00
44140;BME280;29803;51.048;4.686;2022-12-15T14:08:29;100830.44;;;0.82;100.00
44140;BME280;29803;51.048;4.686;2022-12-15T14:11:00;100827.47;;;0.74;100.00
44140;BME280;29803;51.048;4.686;2022-12-15T14:13:34;100823.88;;;0.75;100.00
44140;BME280;29803;51.048;4.686;2022-12-15T14:16:19;100829.16;;;0.75;100.00
44140;BME280;29803;51.048;4.686;2022-12-15T14:19:11;100825.03;;;0.71;100.00
44140;BME280;29803;51.048;4.686;2022-12-15T14:21:51;100826.72;;;0.72;100.00
44140;BME280;29803;51.048;4.686;2022-12-15T14:24:32;100823.31;;;0.70;100.00
44140;BME280;29803;51.048;4.686;2022-12-15T14:27:04;100828.31;;;0.62;100.00
44140;BME280;29803;51.048;4.686;2022-12-15T14:29:35;100822.47;;;0.57;100.00
44140;BME280;29803;51.048;4.686;2022-12-15T14:32:08;100821.84;;;0.53;100.00
44140;BME280;29803;51.048;4.686;2022-12-15T14:34:39;100822.25;;;0.47;100.00
44140;BME280;29803;51.048;4.686;2022-12-15T14:37:15;100823.19;;;0.46;100.00
44140;BME280;29803;51.048;4.686;2022-12-15T14:39:47;100828.19;;;0.63;100.00
44140;BME280;29803;51.048;4.686;2022-12-15T14:42:22;100823.63;;;0.52;100.00
44140;BME280;29803;51.048;4.686;2022-12-15T14:44:54;100809.25;;;0.44;100.00
44140;BME280;29803;51.048;4.686;2022-12-15T14:47:27;100816.38;;;0.29;100.00
44140;BME280;29803;51.048;4.686;2022-12-15T14:50:01;100811.28;;;0.13;100.00
44140;BME280;29803;51.048;4.686;2022-12-15T14:52:40;100816.41;;;0.02;100.00
44140;BME280;29803;51.048;4.686;2022-12-15T14:55:35;100818.06;;;-0.10;100.00
44140;BME280;29803;51.048;4.686;2022-12-15T14:58:27;100817.50;;;-0.15;100.00
44140;BME280;29803;51.048;4.686;2022-12-15T15:01:00;100815.22;;;-0.21;100.00
44140;BME280;29803;51.048;4.686;2022-12-15T15:03:36;100810.09;;;-0.37;100.00
44140;BME280;29803;51.048;4.686;2022-12-15T15:08:47;100805.91;;;-0.68;100.00